Williamsport Regional Airport
KIPT : now visible

Airfield :











YOU CAN JOIN US ON...

 
LOGIN :

Register | Disclaimer

   EN    FR    IT 

 









Legend :    VFR   Marginal VFR   IFR   Intensive IFR   Very Intensive IFR
Visi :
Ceiling :
>= 8 km
>= 3000ft
5 to 8 km
1000 to 3000 ft
1500m to 5 km
500 to 1000 ft
800 to 1500m
200 to 500 ft
< 800m
< 200 ft
Symbols :   Thunderstorms  Fog  Heavy snow  Heavy precipitations  Wind > 20 kt






- Airport Elevation : 529 ft
- IATA code : IPT


KIPT - Williamsport Regional

CURRENT METAR :
  • 141654Z 02005KT 10SM OVC090 01/M10 A3030 RMK AO2 SLP265 T00061100

EXPIRED METARs :
  • 141554Z VRB06KT 10SM OVC110 00/M10 A3030 RMK AO2 SLP268 T00001100
  • 141354Z VRB06KT 10SM BKN110 M01/M10 A3032 RMK AO2 SLP275 T10111100

TAF KIPT
Valid from the 14 at 16:00 until the 15 at 12:00 UTC


141553Z 1416/1512 11006KT P6SM BKN100
FM142300 12004KT P6SM SCT250



MET'MAP, your aeronautical weather chart ! - Copyright ORBIFLY December 2007 - Disclaimer

ORBIFLY MET'MAP TEAM :

Programming & Development : Alexandra Zaïnal
Concept & Development : Baudouin d'Aumeries
Co-Development & Prog : Marc-Olivier Méhu
Technical & hardware support : Manuel Goepfert

Contact : metmap@orbifly.com




SOURCES & CREDITS :

   NOAA       Earth
Advisory